メインページ
METAR-TAF:

METAR-TAF

空港 :

ラスベガス, ネバダ州, アメリカ合衆国

マッカラン国際空港

緯度: 36-04-44N, 経度: 115-09-19W, 海抜: 663m

現時点の気象観測

当レポートは1時間8分前の20:56(UTC)に作成
の風 15kt、最大24ktの突風を伴う
気温 9°C
湿度 12%
気圧 1005 hPa
視程: 16.1km
高度7000ftの雲は散在している
高度11000ftの千切れ雲あり

METAR: KLAS 192056Z 35015G24KT 10SM SCT070 BKN110 09/M19 A2967 RMK AO2 SLP043 VIRGA N-E-S T00941194 58006

時間: 14:04 (22:04 UTC)

予報

当レポートは1時間16分前の20:48(UTC)に作成
予報は19日の 21時(UTC)から 20日の 24時(UTC)まで有効
北/北西の風 14kt、最大24ktの突風を伴う
視程: 10km
高度7000ftの雲は散在している
高度10000ftの千切れ雲あり
20日の 0100時(UTC)から
北/北西の風 14kt、最大24ktの突風を伴う
視程: 10km
高度10000ftの雲は散在している
20日の 0400時(UTC)から
西の風 11kt
視程: 10km
高度12000ftの雲はほとんどない
20日の 1100時(UTC)から
西/南西の風 8kt
視程: 10km
晴天
20日の 1800時(UTC)から
東/北東の風 7kt
視程: 10km
高度12000ftの雲はほとんどない

TAF: KLAS 192048Z 1921/2024 34014G24KT P6SM SCT070 BKN100 FM200100 34014G24KT P6SM SCT100 FM200400 28011KT P6SM FEW120 FM201100 25008KT P6SM SKC FM201800 07007KT P6SM FEW120

4,000以上の空港の気象観測と天気予報(METAR報とTAF報)

利用可能な観測所は地図上に黄色い丸と赤い丸で示す。

丸の上にカーソルを重ねると観測所名を参照できる。

次にクリックすると気象観測と天気予報を参照できる。

マップの切り替え:黒色「×」印の緑ボタンをクリックして拡大、「-」印の緑ボタンをクリックして縮小、緑色の三角印をクリックして隣りの地図に切り替え


METAR-TAF: